sensor_id;sensor_type;location;lat;lon;timestamp;pressure;altitude;pressure_sealevel;temperature;humidity
21504;BME280;10913;51.992;9.228;2023-01-30T00:01:42;100337.34;;;3.04;100.00
21504;BME280;10913;51.992;9.228;2023-01-30T00:04:07;100314.75;;;3.04;100.00
21504;BME280;10913;51.992;9.228;2023-01-30T00:07:00;100303.56;;;3.08;100.00
21504;BME280;10913;51.992;9.228;2023-01-30T00:09:34;100272.22;;;3.08;100.00
21504;BME280;10913;51.992;9.228;2023-01-30T00:12:05;100250.59;;;3.13;100.00
21504;BME280;10913;51.992;9.228;2023-01-30T00:14:33;100229.78;;;3.16;100.00
21504;BME280;10913;51.992;9.228;2023-01-30T00:17:09;100227.25;;;3.19;100.00
21504;BME280;10913;51.992;9.228;2023-01-30T00:19:34;100239.44;;;3.20;100.00
21504;BME280;10913;51.992;9.228;2023-01-30T00:22:02;100234.16;;;3.17;100.00
21504;BME280;10913;51.992;9.228;2023-01-30T00:24:33;100248.13;;;3.19;100.00
21504;BME280;10913;51.992;9.228;2023-01-30T00:27:07;100255.09;;;3.20;100.00
21504;BME280;10913;51.992;9.228;2023-01-30T00:29:35;100257.75;;;3.23;100.00
21504;BME280;10913;51.992;9.228;2023-01-30T00:32:20;100261.25;;;3.23;100.00
21504;BME280;10913;51.992;9.228;2023-01-30T00:34:59;100255.16;;;3.23;100.00
21504;BME280;10913;51.992;9.228;2023-01-30T00:37:29;100248.22;;;3.25;100.00
21504;BME280;10913;51.992;9.228;2023-01-30T00:40:07;100243.94;;;3.27;100.00
21504;BME280;10913;51.992;9.228;2023-01-30T00:42:46;100239.63;;;3.29;100.00
21504;BME280;10913;51.992;9.228;2023-01-30T00:45:36;100225.72;;;3.30;100.00
21504;BME280;10913;51.992;9.228;2023-01-30T00:51:49;100208.38;;;3.32;100.00
21504;BME280;10913;51.992;9.228;2023-01-30T00:54:33;100205.69;;;3.29;100.00
21504;BME280;10913;51.992;9.228;2023-01-30T00:57:09;100216.19;;;3.32;100.00
21504;BME280;10913;51.992;9.228;2023-01-30T00:59:48;100217.06;;;3.32;100.00
21504;BME280;10913;51.992;9.228;2023-01-30T01:02:40;100214.56;;;3.37;100.00
21504;BME280;10913;51.992;9.228;2023-01-30T01:05:31;100219.88;;;3.41;100.00
21504;BME280;10913;51.992;9.228;2023-01-30T01:08:00;100202.47;;;3.42;100.00
21504;BME280;10913;51.992;9.228;2023-01-30T01:10:40;100171.16;;;3.43;100.00
21504;BME280;10913;51.992;9.228;2023-01-30T01:13:12;100180.72;;;3.43;100.00
21504;BME280;10913;51.992;9.228;2023-01-30T01:15:43;100185.97;;;3.44;100.00
21504;BME280;10913;51.992;9.228;2023-01-30T01:18:20;100189.47;;;3.45;100.00
21504;BME280;10913;51.992;9.228;2023-01-30T01:20:54;100179.91;;;3.45;100.00
21504;BME280;10913;51.992;9.228;2023-01-30T01:23:27;100175.63;;;3.49;100.00
21504;BME280;10913;51.992;9.228;2023-01-30T01:26:27;100171.25;;;3.48;100.00
21504;BME280;10913;51.992;9.228;2023-01-30T01:29:01;100176.53;;;3.50;100.00
21504;BME280;10913;51.992;9.228;2023-01-30T01:31:29;100173.03;;;3.49;100.00
21504;BME280;10913;51.992;9.228;2023-01-30T01:33:57;100166.97;;;3.50;100.00
21504;BME280;10913;51.992;9.228;2023-01-30T01:36:51;100147.69;;;3.45;100.00
21504;BME280;10913;51.992;9.228;2023-01-30T01:41:59;100133.78;;;3.46;100.00
21504;BME280;10913;51.992;9.228;2023-01-30T01:44:24;100144.28;;;3.47;100.00
21504;BME280;10913;51.992;9.228;2023-01-30T01:46:53;100136.44;;;3.47;100.00
21504;BME280;10913;51.992;9.228;2023-01-30T01:49:25;100125.19;;;3.50;100.00
21504;BME280;10913;51.992;9.228;2023-01-30T01:51:59;100127.78;;;3.50;100.00
21504;BME280;10913;51.992;9.228;2023-01-30T01:57:13;100116.50;;;3.51;100.00
21504;BME280;10913;51.992;9.228;2023-01-30T01:59:47;100100.84;;;3.53;100.00
21504;BME280;10913;51.992;9.228;2023-01-30T02:02:15;100106.06;;;3.53;100.00
21504;BME280;10913;51.992;9.228;2023-01-30T02:04:45;100089.56;;;3.54;100.00
21504;BME280;10913;51.992;9.228;2023-01-30T02:08:02;100103.53;;;3.56;100.00
21504;BME280;10913;51.992;9.228;2023-01-30T02:10:53;100106.97;;;3.53;100.00
21504;BME280;10913;51.992;9.228;2023-01-30T02:13:21;100097.44;;;3.57;100.00
21504;BME280;10913;51.992;9.228;2023-01-30T02:15:48;100095.66;;;3.54;100.00
21504;BME280;10913;51.992;9.228;2023-01-30T02:18:13;100093.03;;;3.54;100.00
21504;BME280;10913;51.992;9.228;2023-01-30T02:40:17;100035.72;;;3.63;100.00
21504;BME280;10913;51.992;9.228;2023-01-30T02:45:29;100022.66;;;3.62;100.00
21504;BME280;10913;51.992;9.228;2023-01-30T02:48:04;100033.97;;;3.62;100.00
21504;BME280;10913;51.992;9.228;2023-01-30T02:50:39;100026.13;;;3.62;100.00
21504;BME280;10913;51.992;9.228;2023-01-30T02:53:07;100017.41;;;3.62;100.00
21504;BME280;10913;51.992;9.228;2023-01-30T02:55:33;100004.47;;;3.68;100.00
21504;BME280;10913;51.992;9.228;2023-01-30T02:57:59;100004.50;;;3.69;100.00
21504;BME280;10913;51.992;9.228;2023-01-30T03:10:53;99974.91;;;3.70;100.00
21504;BME280;10913;51.992;9.228;2023-01-30T03:16:01;99965.41;;;3.75;100.00
21504;BME280;10913;51.992;9.228;2023-01-30T03:18:27;99955.91;;;3.79;100.00
21504;BME280;10913;51.992;9.228;2023-01-30T03:20:53;99961.16;;;3.84;100.00
21504;BME280;10913;51.992;9.228;2023-01-30T03:23:19;99953.34;;;3.84;100.00
21504;BME280;10913;51.992;9.228;2023-01-30T03:25:45;99958.50;;;3.80;100.00
21504;BME280;10913;51.992;9.228;2023-01-30T03:28:16;99959.50;;;3.89;100.00
21504;BME280;10913;51.992;9.228;2023-01-30T03:30:43;99949.06;;;3.89;100.00
21504;BME280;10913;51.992;9.228;2023-01-30T03:33:09;99943.91;;;3.93;100.00
21504;BME280;10913;51.992;9.228;2023-01-30T03:35:34;99943.03;;;3.93;100.00
21504;BME280;10913;51.992;9.228;2023-01-30T03:38:00;99949.19;;;3.96;100.00
21504;BME280;10913;51.992;9.228;2023-01-30T03:40:25;99959.66;;;4.01;100.00
21504;BME280;10913;51.992;9.228;2023-01-30T03:42:51;99952.72;;;4.01;100.00
21504;BME280;10913;51.992;9.228;2023-01-30T03:45:16;99934.53;;;4.09;100.00
21504;BME280;10913;51.992;9.228;2023-01-30T03:47:41;99931.88;;;4.06;100.00
21504;BME280;10913;51.992;9.228;2023-01-30T03:50:07;99924.03;;;4.06;100.00
21504;BME280;10913;51.992;9.228;2023-01-30T03:52:34;99926.59;;;4.03;100.00
21504;BME280;10913;51.992;9.228;2023-01-30T03:54:59;99910.09;;;4.07;100.00
21504;BME280;10913;51.992;9.228;2023-01-30T03:57:24;99923.22;;;4.10;100.00
21504;BME280;10913;51.992;9.228;2023-01-30T03:59:50;99897.97;;;4.12;100.00
21504;BME280;10913;51.992;9.228;2023-01-30T04:02:15;99899.78;;;4.16;100.00
21504;BME280;10913;51.992;9.228;2023-01-30T04:04:44;99897.19;;;4.21;100.00
21504;BME280;10913;51.992;9.228;2023-01-30T04:07:10;99901.59;;;4.23;100.00
21504;BME280;10913;51.992;9.228;2023-01-30T04:09:35;99893.78;;;4.26;100.00
21504;BME280;10913;51.992;9.228;2023-01-30T04:12:00;99892.03;;;4.25;100.00
21504;BME280;10913;51.992;9.228;2023-01-30T04:14:26;99896.50;;;4.32;100.00
21504;BME280;10913;51.992;9.228;2023-01-30T04:16:51;99891.28;;;4.34;100.00
21504;BME280;10913;51.992;9.228;2023-01-30T04:19:16;99878.22;;;4.34;100.00
21504;BME280;10913;51.992;9.228;2023-01-30T04:21:42;99873.81;;;4.31;100.00
21504;BME280;10913;51.992;9.228;2023-01-30T04:24:07;99877.34;;;4.33;100.00
21504;BME280;10913;51.992;9.228;2023-01-30T04:26:33;99885.22;;;4.36;100.00
21504;BME280;10913;51.992;9.228;2023-01-30T04:28:58;99877.34;;;4.35;100.00
21504;BME280;10913;51.992;9.228;2023-01-30T04:31:23;99865.19;;;4.38;100.00
21504;BME280;10913;51.992;9.228;2023-01-30T04:33:49;99866.06;;;4.40;100.00
21504;BME280;10913;51.992;9.228;2023-01-30T04:36:14;99866.13;;;4.46;100.00
21504;BME280;10913;51.992;9.228;2023-01-30T04:38:39;99872.25;;;4.47;100.00
21504;BME280;10913;51.992;9.228;2023-01-30T04:41:05;99870.50;;;4.47;100.00
21504;BME280;10913;51.992;9.228;2023-01-30T04:43:31;99878.41;;;4.52;100.00
21504;BME280;10913;51.992;9.228;2023-01-30T04:45:56;99871.50;;;4.59;100.00
21504;BME280;10913;51.992;9.228;2023-01-30T04:48:23;99865.38;;;4.60;100.00
21504;BME280;10913;51.992;9.228;2023-01-30T04:50:50;99868.91;;;4.62;100.00
21504;BME280;10913;51.992;9.228;2023-01-30T04:53:17;99870.63;;;4.60;100.00
21504;BME280;10913;51.992;9.228;2023-01-30T04:55:44;99858.44;;;4.62;100.00
21504;BME280;10913;51.992;9.228;2023-01-30T04:58:09;99866.25;;;4.56;100.00
21504;BME280;10913;51.992;9.228;2023-01-30T05:00:35;99858.44;;;4.62;100.00
21504;BME280;10913;51.992;9.228;2023-01-30T05:03:00;99858.47;;;4.65;100.00
21504;BME280;10913;51.992;9.228;2023-01-30T05:05:26;99841.91;;;4.64;100.00
21504;BME280;10913;51.992;9.228;2023-01-30T05:07:52;99843.63;;;4.64;100.00
21504;BME280;10913;51.992;9.228;2023-01-30T05:10:18;99841.00;;;4.61;100.00
21504;BME280;10913;51.992;9.228;2023-01-30T05:12:44;99852.31;;;4.61;100.00
21504;BME280;10913;51.992;9.228;2023-01-30T05:15:10;99839.22;;;4.60;100.00
21504;BME280;10913;51.992;9.228;2023-01-30T05:17:36;99835.75;;;4.61;100.00
21504;BME280;10913;51.992;9.228;2023-01-30T05:20:02;99827.09;;;4.66;100.00
21504;BME280;10913;51.992;9.228;2023-01-30T05:22:28;99842.81;;;4.68;100.00
21504;BME280;10913;51.992;9.228;2023-01-30T05:24:53;99834.97;;;4.68;100.00
21504;BME280;10913;51.992;9.228;2023-01-30T05:27:19;99830.69;;;4.76;100.00
21504;BME280;10913;51.992;9.228;2023-01-30T05:29:44;99828.97;;;4.76;100.00
21504;BME280;10913;51.992;9.228;2023-01-30T05:32:14;99824.63;;;4.81;100.00
21504;BME280;10913;51.992;9.228;2023-01-30T05:34:40;99827.25;;;4.83;100.00
21504;BME280;10913;51.992;9.228;2023-01-30T05:37:05;99818.53;;;4.82;100.00
21504;BME280;10913;51.992;9.228;2023-01-30T05:39:31;99829.88;;;4.84;100.00
21504;BME280;10913;51.992;9.228;2023-01-30T05:41:56;99824.66;;;4.88;100.00
21504;BME280;10913;51.992;9.228;2023-01-30T05:44:22;99816.81;;;4.88;100.00
21504;BME280;10913;51.992;9.228;2023-01-30T05:46:47;99812.47;;;4.88;100.00
21504;BME280;10913;51.992;9.228;2023-01-30T05:49:13;99811.63;;;4.91;100.00
21504;BME280;10913;51.992;9.228;2023-01-30T05:51:38;99811.56;;;4.86;100.00
21504;BME280;10913;51.992;9.228;2023-01-30T05:54:04;99817.72;;;4.90;100.00
21504;BME280;10913;51.992;9.228;2023-01-30T05:56:29;99814.28;;;4.94;100.00
21504;BME280;10913;51.992;9.228;2023-01-30T05:58:59;99819.50;;;4.94;100.00
21504;BME280;10913;51.992;9.228;2023-01-30T06:01:25;99816.00;;;4.93;100.00
21504;BME280;10913;51.992;9.228;2023-01-30T06:03:50;99821.25;;;4.93;100.00
21504;BME280;10913;51.992;9.228;2023-01-30T06:06:16;99826.53;;;4.98;100.00
21504;BME280;10913;51.992;9.228;2023-01-30T06:08:41;99829.13;;;5.01;100.00
21504;BME280;10913;51.992;9.228;2023-01-30T06:11:09;99823.91;;;4.99;100.00
21504;BME280;10913;51.992;9.228;2023-01-30T06:13:36;99826.50;;;5.01;100.00
21504;BME280;10913;51.992;9.228;2023-01-30T06:16:01;99828.28;;;4.99;100.00
21504;BME280;10913;51.992;9.228;2023-01-30T06:18:27;99831.75;;;5.01;100.00
21504;BME280;10913;51.992;9.228;2023-01-30T06:20:53;99837.00;;;4.99;100.00
21504;BME280;10913;51.992;9.228;2023-01-30T06:23:19;99833.50;;;4.99;100.00
21504;BME280;10913;51.992;9.228;2023-01-30T06:25:46;99837.84;;;5.00;100.00
21504;BME280;10913;51.992;9.228;2023-01-30T06:28:13;99862.28;;;5.00;100.00
21504;BME280;10913;51.992;9.228;2023-01-30T06:30:38;99846.59;;;5.00;100.00
21504;BME280;10913;51.992;9.228;2023-01-30T06:33:04;99831.72;;;4.95;100.00
21504;BME280;10913;51.992;9.228;2023-01-30T06:35:30;99859.66;;;4.96;100.00
21504;BME280;10913;51.992;9.228;2023-01-30T06:37:55;99849.19;;;5.00;100.00
21504;BME280;10913;51.992;9.228;2023-01-30T06:40:21;99841.38;;;5.03;100.00
21504;BME280;10913;51.992;9.228;2023-01-30T06:42:47;99837.88;;;5.03;100.00
21504;BME280;10913;51.992;9.228;2023-01-30T06:45:14;99835.25;;;5.01;100.00
21504;BME280;10913;51.992;9.228;2023-01-30T06:47:51;99834.38;;;5.02;100.00
21504;BME280;10913;51.992;9.228;2023-01-30T06:50:18;99848.34;;;5.01;100.00
21504;BME280;10913;51.992;9.228;2023-01-30T06:52:46;99848.34;;;5.01;100.00
21504;BME280;10913;51.992;9.228;2023-01-30T06:55:13;99843.16;;;5.06;100.00
21504;BME280;10913;51.992;9.228;2023-01-30T06:57:39;99837.09;;;5.11;100.00
21504;BME280;10913;51.992;9.228;2023-01-30T07:00:06;99827.53;;;5.16;100.00
21504;BME280;10913;51.992;9.228;2023-01-30T07:02:33;99824.06;;;5.17;100.00
21504;BME280;10913;51.992;9.228;2023-01-30T07:05:03;99823.16;;;5.15;100.00
21504;BME280;10913;51.992;9.228;2023-01-30T07:07:30;99820.56;;;5.18;100.00
21504;BME280;10913;51.992;9.228;2023-01-30T07:09:57;99829.28;;;5.16;100.00
21504;BME280;10913;51.992;9.228;2023-01-30T07:12:23;99833.66;;;5.20;100.00
21504;BME280;10913;51.992;9.228;2023-01-30T07:14:49;99834.56;;;5.24;100.00
21504;BME280;10913;51.992;9.228;2023-01-30T07:17:15;99830.19;;;5.24;100.00
21504;BME280;10913;51.992;9.228;2023-01-30T07:19:42;99834.53;;;5.20;100.00
21504;BME280;10913;51.992;9.228;2023-01-30T07:22:07;99834.56;;;5.24;100.00
21504;BME280;10913;51.992;9.228;2023-01-30T07:24:33;99835.41;;;5.23;100.00
21504;BME280;10913;51.992;9.228;2023-01-30T07:26:58;99843.31;;;5.27;100.00
21504;BME280;10913;51.992;9.228;2023-01-30T07:29:23;99844.22;;;5.31;100.00
21504;BME280;10913;51.992;9.228;2023-01-30T07:31:50;99845.09;;;5.33;100.00
21504;BME280;10913;51.992;9.228;2023-01-30T07:34:15;99832.03;;;5.36;100.00
21504;BME280;10913;51.992;9.228;2023-01-30T07:36:40;99830.28;;;5.35;100.00
21504;BME280;10913;51.992;9.228;2023-01-30T07:39:06;99832.91;;;5.35;100.00
21504;BME280;10913;51.992;9.228;2023-01-30T07:41:33;99845.13;;;5.36;100.00
21504;BME280;10913;51.992;9.228;2023-01-30T07:43:58;99839.88;;;5.33;100.00
21504;BME280;10913;51.992;9.228;2023-01-30T07:46:24;99841.59;;;5.32;100.00
21504;BME280;10913;51.992;9.228;2023-01-30T07:48:49;99835.53;;;5.36;100.00
21504;BME280;10913;51.992;9.228;2023-01-30T07:51:15;99827.66;;;5.35;100.00
21504;BME280;10913;51.992;9.228;2023-01-30T07:53:40;99828.50;;;5.32;100.00
21504;BME280;10913;51.992;9.228;2023-01-30T07:56:10;99831.16;;;5.37;100.00
21504;BME280;10913;51.992;9.228;2023-01-30T07:58:38;99831.16;;;5.37;100.00
21504;BME280;10913;51.992;9.228;2023-01-30T08:01:04;99833.78;;;5.40;100.00
21504;BME280;10913;51.992;9.228;2023-01-30T08:03:29;99819.84;;;5.42;100.00
21504;BME280;10913;51.992;9.228;2023-01-30T08:05:55;99843.41;;;5.44;100.00
21504;BME280;10913;51.992;9.228;2023-01-30T08:08:20;99839.91;;;5.42;100.00
21504;BME280;10913;51.992;9.228;2023-01-30T08:10:48;99831.19;;;5.41;100.00
21504;BME280;10913;51.992;9.228;2023-01-30T08:13:14;99839.91;;;5.42;100.00
21504;BME280;10913;51.992;9.228;2023-01-30T08:15:39;99832.03;;;5.40;100.00
21504;BME280;10913;51.992;9.228;2023-01-30T08:18:05;99832.97;;;5.47;100.00
21504;BME280;10913;51.992;9.228;2023-01-30T08:20:33;99837.38;;;5.52;100.00
21504;BME280;10913;51.992;9.228;2023-01-30T08:22:59;99829.53;;;5.60;100.00
21504;BME280;10913;51.992;9.228;2023-01-30T08:25:26;99847.13;;;5.81;100.00
21504;BME280;10913;51.992;9.228;2023-01-30T08:27:52;99850.81;;;6.12;100.00
21504;BME280;10913;51.992;9.228;2023-01-30T08:30:18;99844.78;;;6.42;100.00
21504;BME280;10913;51.992;9.228;2023-01-30T08:32:44;99843.03;;;6.39;100.00
21504;BME280;10913;51.992;9.228;2023-01-30T08:35:10;99849.13;;;6.31;100.00
21504;BME280;10913;51.992;9.228;2023-01-30T08:37:35;99850.84;;;6.27;100.00
21504;BME280;10913;51.992;9.228;2023-01-30T08:40:01;99847.34;;;6.17;100.00
21504;BME280;10913;51.992;9.228;2023-01-30T08:42:26;99845.63;;;6.30;100.00
21504;BME280;10913;51.992;9.228;2023-01-30T08:44:52;99843.06;;;6.65;100.00
21504;BME280;10913;51.992;9.228;2023-01-30T08:47:17;99842.22;;;6.71;100.00
21504;BME280;10913;51.992;9.228;2023-01-30T08:49:42;99855.31;;;6.66;100.00
21504;BME280;10913;51.992;9.228;2023-01-30T08:52:09;99838.75;;;6.96;100.00
21504;BME280;10913;51.992;9.228;2023-01-30T08:54:34;99843.09;;;6.74;100.00
21504;BME280;10913;51.992;9.228;2023-01-30T08:56:59;99858.81;;;6.64;100.00
21504;BME280;10913;51.992;9.228;2023-01-30T08:59:25;99857.03;;;6.46;100.00
21504;BME280;10913;51.992;9.228;2023-01-30T09:01:50;99851.88;;;6.87;100.00
21504;BME280;10913;51.992;9.228;2023-01-30T09:04:15;99849.91;;;8.11;98.46
21504;BME280;10913;51.992;9.228;2023-01-30T09:06:41;99835.53;;;9.78;90.66
21504;BME280;10913;51.992;9.228;2023-01-30T09:09:06;99845.75;;;10.06;86.86
21504;BME280;10913;51.992;9.228;2023-01-30T09:11:32;99842.72;;;9.61;86.45
21504;BME280;10913;51.992;9.228;2023-01-30T09:13:57;99842.84;;;9.49;87.29
21504;BME280;10913;51.992;9.228;2023-01-30T09:16:23;99834.53;;;8.98;88.32
21504;BME280;10913;51.992;9.228;2023-01-30T09:18:48;99841.00;;;8.47;90.55
21504;BME280;10913;51.992;9.228;2023-01-30T09:21:13;99862.22;;;8.03;92.78
21504;BME280;10913;51.992;9.228;2023-01-30T09:23:39;99857.09;;;7.49;95.29
21504;BME280;10913;51.992;9.228;2023-01-30T09:26:05;99859.75;;;7.23;97.48
21504;BME280;10913;51.992;9.228;2023-01-30T09:28:31;99872.88;;;7.02;98.12
21504;BME280;10913;51.992;9.228;2023-01-30T09:30:58;99864.97;;;6.82;99.71
21504;BME280;10913;51.992;9.228;2023-01-30T09:33:24;99875.47;;;6.72;99.90
21504;BME280;10913;51.992;9.228;2023-01-30T09:35:50;99890.31;;;6.62;100.00
21504;BME280;10913;51.992;9.228;2023-01-30T09:38:16;99906.03;;;6.48;100.00
21504;BME280;10913;51.992;9.228;2023-01-30T09:40:58;99900.72;;;6.33;100.00
21504;BME280;10913;51.992;9.228;2023-01-30T09:46:51;99898.88;;;6.11;100.00
21504;BME280;10913;51.992;9.228;2023-01-30T09:52:18;99891.88;;;6.07;100.00
21504;BME280;10913;51.992;9.228;2023-01-30T09:54:47;99896.25;;;6.11;100.00
21504;BME280;10913;51.992;9.228;2023-01-30T09:57:22;99891.88;;;6.11;100.00
21504;BME280;10913;51.992;9.228;2023-01-30T09:59:56;99880.53;;;6.11;100.00
21504;BME280;10913;51.992;9.228;2023-01-30T10:02:50;99881.38;;;6.10;100.00
21504;BME280;10913;51.992;9.228;2023-01-30T10:05:17;99885.75;;;6.08;100.00
21504;BME280;10913;51.992;9.228;2023-01-30T10:13:41;99887.47;;;6.04;100.00
21504;BME280;10913;51.992;9.228;2023-01-30T10:19:03;99895.22;;;5.86;100.00
21504;BME280;10913;51.992;9.228;2023-01-30T10:27:00;99891.41;;;5.40;100.00
21504;BME280;10913;51.992;9.228;2023-01-30T10:29:36;99889.63;;;5.34;100.00
21504;BME280;10913;51.992;9.228;2023-01-30T10:32:16;99900.88;;;5.24;100.00
21504;BME280;10913;51.992;9.228;2023-01-30T10:34:47;99894.75;;;5.22;100.00
21504;BME280;10913;51.992;9.228;2023-01-30T10:37:14;99895.66;;;5.26;100.00
21504;BME280;10913;51.992;9.228;2023-01-30T10:45:49;99868.75;;;5.43;100.00
21504;BME280;10913;51.992;9.228;2023-01-30T10:48:47;99889.81;;;5.60;100.00
21504;BME280;10913;51.992;9.228;2023-01-30T10:51:47;99875.94;;;5.81;100.00
21504;BME280;10913;51.992;9.228;2023-01-30T10:54:18;99880.41;;;5.90;100.00
21504;BME280;10913;51.992;9.228;2023-01-30T10:56:57;99886.56;;;5.93;100.00
21504;BME280;10913;51.992;9.228;2023-01-30T11:00:02;99888.34;;;6.05;100.00
21504;BME280;10913;51.992;9.228;2023-01-30T11:05:29;99879.69;;;6.21;100.00
21504;BME280;10913;51.992;9.228;2023-01-30T11:07:58;99869.25;;;6.32;100.00
21504;BME280;10913;51.992;9.228;2023-01-30T11:10:25;99870.16;;;6.50;100.00
21504;BME280;10913;51.992;9.228;2023-01-30T11:13:00;99864.94;;;6.53;100.00
21504;BME280;10913;51.992;9.228;2023-01-30T11:15:40;99855.31;;;6.55;100.00
21504;BME280;10913;51.992;9.228;2023-01-30T11:18:08;99868.41;;;6.46;100.00
21504;BME280;10913;51.992;9.228;2023-01-30T11:20:39;99873.66;;;6.37;100.00
21504;BME280;10913;51.992;9.228;2023-01-30T11:23:07;99873.66;;;6.37;100.00
21504;BME280;10913;51.992;9.228;2023-01-30T11:25:47;99874.50;;;6.36;100.00
21504;BME280;10913;51.992;9.228;2023-01-30T11:28:14;99868.38;;;6.43;100.00
21504;BME280;10913;51.992;9.228;2023-01-30T11:30:49;99862.25;;;6.41;100.00
21504;BME280;10913;51.992;9.228;2023-01-30T11:33:17;99874.50;;;6.36;100.00
21504;BME280;10913;51.992;9.228;2023-01-30T11:38:59;99876.25;;;6.36;100.00
21504;BME280;10913;51.992;9.228;2023-01-30T11:41:26;99871.00;;;6.36;100.00
21504;BME280;10913;51.992;9.228;2023-01-30T11:43:59;99862.28;;;6.46;100.00
21504;BME280;10913;51.992;9.228;2023-01-30T11:46:37;99851.84;;;6.58;100.00
21504;BME280;10913;51.992;9.228;2023-01-30T11:49:14;99848.34;;;6.82;100.00
21504;BME280;10913;51.992;9.228;2023-01-30T11:51:44;99845.72;;;6.82;100.00
21504;BME280;10913;51.992;9.228;2023-01-30T11:54:18;99833.47;;;6.87;100.00
21504;BME280;10913;51.992;9.228;2023-01-30T11:56:51;99815.13;;;6.79;100.00
21504;BME280;10913;51.992;9.228;2023-01-30T11:59:30;99819.50;;;6.94;99.51
21504;BME280;10913;51.992;9.228;2023-01-30T12:02:15;99828.22;;;7.02;99.18
21504;BME280;10913;51.992;9.228;2023-01-30T12:04:44;99824.75;;;6.94;98.54
21504;BME280;10913;51.992;9.228;2023-01-30T12:07:27;99819.47;;;6.82;98.96
21504;BME280;10913;51.992;9.228;2023-01-30T12:09:54;99830.00;;;6.79;99.34
21504;BME280;10913;51.992;9.228;2023-01-30T12:12:45;99816.84;;;6.71;99.77
21504;BME280;10913;51.992;9.228;2023-01-30T12:15:18;99824.72;;;6.67;100.00
21504;BME280;10913;51.992;9.228;2023-01-30T12:26:41;99843.88;;;6.29;100.00
21504;BME280;10913;51.992;9.228;2023-01-30T12:31:24;99836.84;;;6.16;100.00
21504;BME280;10913;51.992;9.228;2023-01-30T12:33:51;99843.81;;;6.11;100.00
21504;BME280;10913;51.992;9.228;2023-01-30T12:36:37;99842.06;;;6.10;100.00
21504;BME280;10913;51.992;9.228;2023-01-30T12:42:26;99849.06;;;6.11;100.00
21504;BME280;10913;51.992;9.228;2023-01-30T12:55:19;99863.06;;;6.20;100.00
21504;BME280;10913;51.992;9.228;2023-01-30T13:03:09;99890.94;;;5.93;100.00
21504;BME280;10913;51.992;9.228;2023-01-30T13:08:43;99872.69;;;6.15;100.00
21504;BME280;10913;51.992;9.228;2023-01-30T13:11:19;99864.88;;;6.35;100.00
21504;BME280;10913;51.992;9.228;2023-01-30T13:24:58;99876.34;;;6.86;100.00
21504;BME280;10913;51.992;9.228;2023-01-30T13:27:28;99886.00;;;6.90;99.46
21504;BME280;10913;51.992;9.228;2023-01-30T13:29:58;99892.97;;;6.82;99.14
21504;BME280;10913;51.992;9.228;2023-01-30T13:32:46;99908.72;;;6.73;99.02
21504;BME280;10913;51.992;9.228;2023-01-30T13:35:19;99894.72;;;6.71;99.45
21504;BME280;10913;51.992;9.228;2023-01-30T13:37:48;99904.31;;;6.64;99.01
21504;BME280;10913;51.992;9.228;2023-01-30T13:40:18;99913.94;;;6.54;99.49
21504;BME280;10913;51.992;9.228;2023-01-30T13:42:49;99919.19;;;6.54;99.96
21504;BME280;10913;51.992;9.228;2023-01-30T13:45:21;99917.38;;;6.46;99.80
21504;BME280;10913;51.992;9.228;2023-01-30T13:56:14;99928.66;;;6.27;100.00
21504;BME280;10913;51.992;9.228;2023-01-30T14:07:28;99961.00;;;6.26;100.00
21504;BME280;10913;51.992;9.228;2023-01-30T14:10:15;99964.47;;;6.20;100.00
21504;BME280;10913;51.992;9.228;2023-01-30T14:12:49;99959.25;;;6.17;100.00
21504;BME280;10913;51.992;9.228;2023-01-30T14:20:23;99974.09;;;6.18;100.00
21504;BME280;10913;51.992;9.228;2023-01-30T14:22:57;99968.81;;;6.13;100.00
21504;BME280;10913;51.992;9.228;2023-01-30T14:35:43;99980.22;;;6.17;100.00
21504;BME280;10913;51.992;9.228;2023-01-30T14:40:41;100008.19;;;6.15;99.96
21504;BME280;10913;51.992;9.228;2023-01-30T14:45:52;100016.94;;;6.21;98.84
21504;BME280;10913;51.992;9.228;2023-01-30T14:56:35;100058.91;;;6.20;97.13
21504;BME280;10913;51.992;9.228;2023-01-30T14:59:06;100057.19;;;6.25;95.51
21504;BME280;10913;51.992;9.228;2023-01-30T15:07:22;100090.41;;;6.23;96.99
21504;BME280;10913;51.992;9.228;2023-01-30T15:12:37;100091.28;;;6.23;97.33
21504;BME280;10913;51.992;9.228;2023-01-30T15:31:25;100142.81;;;6.20;96.98
21504;BME280;10913;51.992;9.228;2023-01-30T15:33:53;100148.06;;;6.17;96.39
21504;BME280;10913;51.992;9.228;2023-01-30T15:38:55;100171.69;;;6.18;97.18
21504;BME280;10913;51.992;9.228;2023-01-30T15:41:21;100171.69;;;6.21;96.18
21504;BME280;10913;51.992;9.228;2023-01-30T15:52:18;100183.94;;;6.21;97.84
21504;BME280;10913;51.992;9.228;2023-01-30T15:54:52;100194.41;;;6.21;97.10
21504;BME280;10913;51.992;9.228;2023-01-30T15:57:25;100176.91;;;6.20;97.49
21504;BME280;10913;51.992;9.228;2023-01-30T15:59:54;100195.28;;;6.21;97.44
21504;BME280;10913;51.992;9.228;2023-01-30T16:05:05;100192.66;;;6.18;98.05
21504;BME280;10913;51.992;9.228;2023-01-30T16:07:31;100204.88;;;6.16;98.27
21504;BME280;10913;51.992;9.228;2023-01-30T16:09:57;100201.38;;;6.16;97.99
21504;BME280;10913;51.992;9.228;2023-01-30T16:12:27;100205.75;;;6.15;98.32
21504;BME280;10913;51.992;9.228;2023-01-30T16:14:53;100225.88;;;6.18;98.21
21504;BME280;10913;51.992;9.228;2023-01-30T16:17:27;100228.50;;;6.16;98.53
21504;BME280;10913;51.992;9.228;2023-01-30T16:19:54;100231.13;;;6.16;98.60
21504;BME280;10913;51.992;9.228;2023-01-30T16:22:22;100231.97;;;6.14;99.04
21504;BME280;10913;51.992;9.228;2023-01-30T16:24:50;100231.94;;;6.11;99.58
21504;BME280;10913;51.992;9.228;2023-01-30T16:27:23;100238.03;;;6.10;99.62
21504;BME280;10913;51.992;9.228;2023-01-30T16:29:55;100241.50;;;6.07;99.06
21504;BME280;10913;51.992;9.228;2023-01-30T16:32:26;100252.03;;;6.12;98.42
21504;BME280;10913;51.992;9.228;2023-01-30T16:37:54;100266.00;;;6.09;99.52
21504;BME280;10913;51.992;9.228;2023-01-30T16:40:26;100280.88;;;6.10;99.89
21504;BME280;10913;51.992;9.228;2023-01-30T16:50:44;100288.75;;;6.10;100.00